メインページ
METAR-TAF:

METAR-TAF

空港 :

ナッソー, バハマ

リンデン・ピンドリング国際空港

緯度: 25-03N, 経度: 077-28W, 海抜: 3m

現時点の気象観測

当レポートは33分前の22:00(UTC)に作成
北/北東の風 11kt
気温 34°C
湿度 60%
気圧 1017 hPa
視程10km以上
高度1500ftの雲はほとんどない, 積乱雲.
高度1800ftの雲は散在している, 塔状積雲.
近辺でにわか雨

METAR: MYNN 262200Z 03011KT 9999 VCSH FEW015CB SCT018TCU 34/25 A3003 RMK CB S-W TCU S-W/N VCSH S/W PKWND17KT

時間: 18:33 (22:33 UTC)

予報

当レポートは7時間18分前の15:15(UTC)に作成
予報は26日の 18時(UTC)から 27日の 18時(UTC)まで有効
の風 10kt
視程10km以上
高度1500ftの雲はほとんどない, 積乱雲.
高度2000ftの雲は散在している
近辺でにわか雨
27日の 03時(UTC)から 27日の 05時(UTC)まで徐々に
変向風 2kt
高度1800ftの雲は散在している

TAF: MYNN 261515Z 2618/2718 08010KT 9999 VCSH FEW015CB SCT020 BECMG 2703/2705 VRB02KT SCT018

4,000以上の空港の気象観測と天気予報(METAR報とTAF報)

利用可能な観測所は地図上に黄色い丸と赤い丸で示す。

丸の上にカーソルを重ねると観測所名を参照できる。

次にクリックすると気象観測と天気予報を参照できる。

マップの切り替え:黒色「×」印の緑ボタンをクリックして拡大、「-」印の緑ボタンをクリックして縮小、緑色の三角印をクリックして隣りの地図に切り替え


METAR-TAF: